createdAt,value
2018-06-15T00:03:46.779Z,21.30
2018-06-15T00:08:49.813Z,22.90
2018-06-15T00:13:52.860Z,21.43
2018-06-15T00:18:55.854Z,22.10
2018-06-15T00:23:58.908Z,21.10
2018-06-15T00:29:02.043Z,22.20
2018-06-15T00:34:05.114Z,23.00
2018-06-15T00:39:10.741Z,22.10
2018-06-15T00:44:13.789Z,23.13
2018-06-15T00:49:16.847Z,22.80
2018-06-15T00:54:19.890Z,20.17
2018-06-15T00:59:22.953Z,21.83
2018-06-15T01:04:25.961Z,22.30
2018-06-15T01:09:29.017Z,21.50
2018-06-15T01:14:32.066Z,22.50
2018-06-15T01:19:35.985Z,23.80
2018-06-15T01:24:40.042Z,21.03
2018-06-15T01:29:43.102Z,21.60
2018-06-15T01:34:46.113Z,23.87
2018-06-15T01:39:49.175Z,22.30
2018-06-15T01:44:52.213Z,20.70
2018-06-15T01:49:55.185Z,24.17
2018-06-15T01:54:58.240Z,22.50
2018-06-15T02:00:01.274Z,22.40
2018-06-15T02:05:04.366Z,23.07
2018-06-15T02:10:07.437Z,21.83
2018-06-15T02:15:10.485Z,22.80
2018-06-15T02:20:13.557Z,22.87
2018-06-15T02:25:16.604Z,21.93
2018-06-15T02:30:19.643Z,23.50
2018-06-15T02:35:22.648Z,23.00
2018-06-15T02:40:25.765Z,21.77
2018-06-15T02:45:28.832Z,22.70
2018-06-15T02:50:31.844Z,23.10
2018-06-15T02:55:34.925Z,21.93
2018-06-15T03:00:37.999Z,23.07
2018-06-15T03:05:41.190Z,22.60
2018-06-15T03:10:44.279Z,22.10
2018-06-15T03:15:47.301Z,21.10
2018-06-15T03:20:50.363Z,22.33
2018-06-15T03:25:53.380Z,21.03
2018-06-15T03:30:56.478Z,21.67
2018-06-15T03:35:59.678Z,21.47
2018-06-15T03:41:02.733Z,21.57
2018-06-15T03:46:05.740Z,22.30
2018-06-15T03:51:08.798Z,23.93
2018-06-15T03:56:11.861Z,23.40
2018-06-15T04:01:14.854Z,23.30
2018-06-15T04:06:17.850Z,24.20
2018-06-15T04:11:20.834Z,23.83
2018-06-15T04:16:23.846Z,26.00
2018-06-15T04:21:26.841Z,23.27
2018-06-15T04:26:29.865Z,24.27
2018-06-15T04:31:32.925Z,23.90
2018-06-15T04:36:35.929Z,22.83
2018-06-15T04:41:39.038Z,23.73
2018-06-15T04:46:42.126Z,24.87
2018-06-15T04:51:45.118Z,22.57
2018-06-15T04:56:48.122Z,23.50
2018-06-15T05:01:51.134Z,21.77
2018-06-15T05:06:54.113Z,22.90
2018-06-15T05:11:57.072Z,21.93
2018-06-15T05:17:00.166Z,24.60
2018-06-15T05:22:03.158Z,20.93
2018-06-15T05:27:06.417Z,23.23
2018-06-15T05:32:09.401Z,21.43
2018-06-15T05:37:12.419Z,23.10
2018-06-15T05:42:15.437Z,20.40
2018-06-15T05:47:18.442Z,19.93
2018-06-15T05:52:21.450Z,20.60
2018-06-15T05:57:24.437Z,20.07
2018-06-15T06:02:27.438Z,19.80
2018-06-15T06:07:30.425Z,19.63
2018-06-15T06:12:33.421Z,20.30
2018-06-15T06:17:36.415Z,19.50
2018-06-15T06:22:39.597Z,19.37
2018-06-15T06:27:42.639Z,19.87
2018-06-15T06:32:45.691Z,19.10
2018-06-15T06:37:48.715Z,18.37
2018-06-15T06:42:51.690Z,19.57
2018-06-15T06:47:54.685Z,18.30
2018-06-15T06:52:57.726Z,16.83
2018-06-15T06:58:00.727Z,17.10
2018-06-15T07:03:03.732Z,17.33
2018-06-15T07:08:06.738Z,18.10
2018-06-15T07:13:09.720Z,16.53
2018-06-15T07:18:12.984Z,16.83
2018-06-15T07:23:15.993Z,16.03
2018-06-15T07:28:19.029Z,17.63
2018-06-15T07:33:22.087Z,16.60
2018-06-15T07:38:25.081Z,16.70
2018-06-15T07:43:28.061Z,16.67
2018-06-15T07:48:31.095Z,15.40
2018-06-15T07:53:34.125Z,15.57
2018-06-15T07:58:37.101Z,15.70
2018-06-15T08:03:43.611Z,16.90
2018-06-15T08:08:46.614Z,15.40
2018-06-15T08:13:49.607Z,15.27
2018-06-15T08:18:52.706Z,14.40
2018-06-15T08:23:55.844Z,12.27
2018-06-15T08:28:58.828Z,13.90
2018-06-15T08:34:01.861Z,12.50
2018-06-15T08:39:08.826Z,9.83
2018-06-15T08:44:11.846Z,10.40
2018-06-15T08:49:14.829Z,10.23
2018-06-15T08:54:17.874Z,9.93
2018-06-15T08:59:20.857Z,10.10
2018-06-15T09:04:23.937Z,8.80
2018-06-15T09:09:26.965Z,9.10
2018-06-15T09:14:30.008Z,8.93
2018-06-15T09:19:33.014Z,9.37
2018-06-15T09:24:36.018Z,10.77
2018-06-15T09:29:39.017Z,10.10
2018-06-15T09:34:42.023Z,10.00
2018-06-15T09:39:45.019Z,8.97
2018-06-15T09:44:48.009Z,8.20
2018-06-15T09:49:50.957Z,9.50
2018-06-15T09:54:53.993Z,9.53
2018-06-15T09:59:56.973Z,7.37
2018-06-15T10:05:00.035Z,6.87
2018-06-15T10:10:03.112Z,6.20
2018-06-15T10:15:06.105Z,6.00
2018-06-15T10:20:09.434Z,6.00
2018-06-15T10:25:12.463Z,5.70
2018-06-15T10:30:15.469Z,5.10
2018-06-15T10:35:18.486Z,5.50
2018-06-15T10:40:21.522Z,4.60
2018-06-15T10:45:24.522Z,3.77
2018-06-15T10:50:27.505Z,3.73
2018-06-15T10:55:30.510Z,4.50
2018-06-15T11:00:33.526Z,4.10
2018-06-15T11:05:36.534Z,3.27
2018-06-15T11:10:39.557Z,3.77
2018-06-15T11:15:42.643Z,3.33
2018-06-15T11:20:45.645Z,3.63
2018-06-15T11:25:48.677Z,3.67
2018-06-15T11:30:51.736Z,3.80
2018-06-15T11:35:54.747Z,3.20
2018-06-15T11:40:57.785Z,2.80
2018-06-15T11:46:00.750Z,5.50
2018-06-15T11:51:03.758Z,3.33
2018-06-15T11:56:06.786Z,3.47
2018-06-15T12:01:09.815Z,3.60
2018-06-15T12:06:12.833Z,2.90
2018-06-15T12:11:15.840Z,2.60
2018-06-15T12:16:18.833Z,3.13
2018-06-15T12:21:21.835Z,3.20
2018-06-15T12:26:25.029Z,3.00
2018-06-15T12:31:28.157Z,3.50
2018-06-15T12:36:31.166Z,3.67
2018-06-15T12:41:34.161Z,3.20
2018-06-15T12:46:37.177Z,2.60
2018-06-15T12:51:40.162Z,3.23
2018-06-15T12:56:43.177Z,2.87
2018-06-15T13:01:46.180Z,3.00
2018-06-15T13:06:49.174Z,2.90
2018-06-15T13:11:52.207Z,2.57
2018-06-15T13:16:55.198Z,2.63
2018-06-15T13:21:58.182Z,2.70
2018-06-15T13:27:01.346Z,3.93
2018-06-15T13:32:04.374Z,2.70
2018-06-15T13:37:07.402Z,2.63
2018-06-15T13:42:10.389Z,3.00
2018-06-15T13:47:13.401Z,2.73
2018-06-15T13:52:16.397Z,2.90
2018-06-15T13:57:19.383Z,3.20
2018-06-15T14:02:22.361Z,2.40
2018-06-15T14:07:25.562Z,2.47
2018-06-15T14:12:28.602Z,3.23
2018-06-15T14:17:31.608Z,3.10
2018-06-15T14:22:34.582Z,3.70
2018-06-15T14:27:37.590Z,2.90
2018-06-15T14:32:40.603Z,3.00
2018-06-15T14:37:43.570Z,3.30
2018-06-15T14:42:46.585Z,3.40
2018-06-15T14:47:49.633Z,3.33
2018-06-15T14:52:52.642Z,5.17
2018-06-15T14:57:55.625Z,4.17
2018-06-15T15:02:58.597Z,3.77
2018-06-15T15:08:02.524Z,4.33
2018-06-15T15:13:05.523Z,3.73
2018-06-15T15:18:09.213Z,4.13
2018-06-15T15:23:12.934Z,4.20
2018-06-15T15:28:16.039Z,5.03
2018-06-15T15:33:19.098Z,4.70
2018-06-15T15:38:22.179Z,4.27
2018-06-15T15:43:25.220Z,4.60
2018-06-15T15:48:28.226Z,4.43
2018-06-15T15:53:31.222Z,4.40
2018-06-15T15:58:34.304Z,4.67
2018-06-15T16:03:37.321Z,4.70
2018-06-15T16:08:40.310Z,4.30
2018-06-15T16:13:43.349Z,4.90
2018-06-15T16:18:48.289Z,4.57
2018-06-15T16:23:51.365Z,4.80
2018-06-15T16:28:54.394Z,5.03
2018-06-15T16:33:57.427Z,5.00
2018-06-15T16:39:00.434Z,5.63
2018-06-15T16:44:03.475Z,5.07
2018-06-15T16:49:06.559Z,5.43
2018-06-15T16:54:09.558Z,4.60
2018-06-15T16:59:12.642Z,6.90
2018-06-15T17:04:15.650Z,6.90
2018-06-15T17:09:18.654Z,7.10
2018-06-15T17:14:21.641Z,5.87
2018-06-15T17:19:24.741Z,5.87
2018-06-15T17:24:27.687Z,5.80
2018-06-15T17:29:30.753Z,5.57
2018-06-15T17:34:33.745Z,5.20
2018-06-15T17:39:37.326Z,5.20
2018-06-15T17:44:40.430Z,4.80
2018-06-15T17:49:43.410Z,4.70
2018-06-15T17:54:46.492Z,5.73
2018-06-15T17:59:49.550Z,5.63
2018-06-15T18:04:52.549Z,5.20
2018-06-15T18:09:55.621Z,5.60
2018-06-15T18:14:58.671Z,4.73
2018-06-15T18:20:01.718Z,5.27
2018-06-15T18:25:05.094Z,6.00
2018-06-15T18:30:08.264Z,5.40
2018-06-15T18:35:11.310Z,5.27
2018-06-15T18:40:14.301Z,5.43
2018-06-15T18:45:17.298Z,5.77
2018-06-15T18:50:20.416Z,4.90
2018-06-15T18:55:23.596Z,5.07
2018-06-15T19:00:26.739Z,5.13
2018-06-15T19:05:29.786Z,4.97
2018-06-15T19:10:32.814Z,6.60
2018-06-15T19:15:35.872Z,5.13
2018-06-15T19:20:38.909Z,5.57
2018-06-15T19:25:41.987Z,5.73
2018-06-15T19:30:45.059Z,5.17
2018-06-15T19:35:48.392Z,5.30
2018-06-15T19:40:51.406Z,5.30
2018-06-15T19:45:54.398Z,5.40
2018-06-15T19:50:57.385Z,5.33
2018-06-15T19:56:00.393Z,5.40
2018-06-15T20:01:04.633Z,5.40
2018-06-15T20:06:09.293Z,5.63
2018-06-15T20:11:13.676Z,5.77
2018-06-15T20:16:17.704Z,5.73
2018-06-15T20:21:21.966Z,6.40
2018-06-15T20:26:26.037Z,6.67
2018-06-15T20:31:30.094Z,7.40
2018-06-15T20:36:35.093Z,6.43
2018-06-15T20:41:39.776Z,7.00
2018-06-15T20:46:43.777Z,6.80
2018-06-15T20:51:48.136Z,7.27
2018-06-15T20:56:52.338Z,6.90
2018-06-15T21:01:55.745Z,7.63
2018-06-15T21:06:59.810Z,7.10
2018-06-15T21:12:03.940Z,7.73
2018-06-15T21:17:08.312Z,7.67
2018-06-15T21:22:12.371Z,7.60
2018-06-15T21:27:16.335Z,8.00
2018-06-15T21:32:19.926Z,6.70
2018-06-15T21:37:23.066Z,7.47
2018-06-15T21:42:27.698Z,8.10
2018-06-15T21:47:33.564Z,8.00
2018-06-15T21:52:37.126Z,7.57
2018-06-15T21:57:41.152Z,7.50
2018-06-15T22:02:45.710Z,7.47
2018-06-15T22:07:50.561Z,8.10
2018-06-15T22:12:54.831Z,7.70
2018-06-15T22:17:57.941Z,7.73
2018-06-15T22:23:00.994Z,7.53
2018-06-15T22:28:04.000Z,7.17
2018-06-15T22:33:07.070Z,8.07
2018-06-15T22:38:10.129Z,7.63
2018-06-15T22:43:13.151Z,7.93
2018-06-15T22:48:16.205Z,8.07
2018-06-15T22:53:19.201Z,8.20
2018-06-15T22:58:22.259Z,8.83
2018-06-15T23:03:25.285Z,8.57
2018-06-15T23:08:28.294Z,9.30
2018-06-15T23:13:31.330Z,8.30
2018-06-15T23:18:34.363Z,8.60
2018-06-15T23:23:37.368Z,8.53
2018-06-15T23:28:40.415Z,9.20
2018-06-15T23:33:43.423Z,9.60
2018-06-15T23:38:46.410Z,8.60
2018-06-15T23:43:49.441Z,8.20
2018-06-15T23:48:52.450Z,8.40
2018-06-15T23:53:55.489Z,7.47
2018-06-15T23:58:58.526Z,8.70
